Time;durP1;ratioP1;P1;durP2;ratioP2;P2;SDS_P1;SDS_P2;PMS_P1;PMS_P2;Temp;Humidity;BMP_temperature;BMP_pressure;BME280_temperature;BME280_humidity;BME280_pressure;Samples;Min_cycle;Max_cycle;Signal;HPM_P1;HPM_P2
2023/04/10 00:27:05;;;;;;;0.10;0.10;;;;;;;;;;6207999;22;20032;-82
2023/04/10 00:32:31;;;;;;;0.13;0.13;;;;;;;;;;6212000;23;20024;-81
2023/04/10 00:35:13;;;;;;;0.20;0.20;;;;;;;;;;6210821;23;20106;-81
2023/04/10 00:37:39;;;;;;;0.20;0.20;;;;;;;;;;6212941;23;20338;-81
2023/04/10 00:40:35;;;;;;;0.20;0.20;;;;;;;;;;6214145;23;20052;-81
2023/04/10 00:46:09;;;;;;;0.20;0.20;;;;;;;;;;6098723;23;20426;-82
2023/04/10 00:48:35;;;;;;;0.20;0.20;;;;;;;;;;6112094;23;20086;-81
2023/04/10 00:51:06;;;;;;;0.13;0.13;;;;;;;;;;6122433;23;20018;-81
2023/04/10 00:53:49;;;;;;;0.20;0.20;;;;;;;;;;6165045;23;20116;-82
2023/04/10 00:56:34;;;;;;;0.15;0.15;;;;;;;;;;6188759;23;20043;-82
2023/04/10 00:59:03;;;;;;;0.20;0.20;;;;;;;;;;6210164;23;20024;-82
2023/04/10 01:01:39;;;;;;;0.20;0.20;;;;;;;;;;6212965;23;20016;-82
2023/04/10 01:10:37;;;;;;;0.10;0.10;;;;;;;;;;6271182;22;20023;-84
2023/04/10 01:43:55;;;;;;;0.20;0.20;;;;;;;;;;6251350;23;20020;-83
2023/04/10 01:49:43;;;;;;;0.20;0.20;;;;;;;;;;6253146;23;20047;-84
2023/04/10 01:52:12;;;;;;;0.10;0.10;;;;;;;;;;6249090;23;20073;-84
2023/04/10 01:58:16;;;;;;;0.20;0.20;;;;;;;;;;6243381;23;20062;-83
2023/04/10 02:04:08;;;;;;;0.20;0.20;;;;;;;;;;6242796;23;20027;-82
2023/04/10 02:10:03;;;;;;;0.20;0.20;;;;;;;;;;6244523;23;20016;-83
2023/04/10 02:12:55;;;;;;;0.20;0.20;;;;;;;;;;6240762;22;20020;-82
2023/04/10 02:15:23;;;;;;;0.40;0.40;;;;;;;;;;6215364;23;20020;-83
2023/04/10 02:17:53;;;;;;;0.20;0.20;;;;;;;;;;6243443;23;20012;-83
2023/04/10 02:20:47;;;;;;;0.20;0.20;;;;;;;;;;6244425;23;20016;-84
2023/04/10 02:23:29;;;;;;;0.20;0.20;;;;;;;;;;6245030;23;20115;-84
2023/04/10 02:26:32;;;;;;;0.20;0.20;;;;;;;;;;6232217;23;20094;-83
2023/04/10 02:32:11;;;;;;;0.20;0.20;;;;;;;;;;6261282;23;20022;-83
2023/04/10 02:38:12;;;;;;;0.20;0.20;;;;;;;;;;6244119;23;20015;-83
2023/04/10 02:40:55;;;;;;;;;;;;;;;;;;;;;
2023/04/10 02:43:43;;;;;;;;;;;;;;;;;;6176241;23;20018;-83
2023/04/10 02:46:34;;;;;;;0.17;0.17;;;;;;;;;;6242536;23;19926;-83
2023/04/10 02:49:19;;;;;;;0.20;0.20;;;;;;;;;;6214619;23;20020;-83
2023/04/10 03:01:52;;;;;;;0.13;0.13;;;;;;;;;;6242575;23;20612;-82
2023/04/10 03:04:24;;;;;;;0.10;0.10;;;;;;;;;;6226781;23;20020;-82
2023/04/10 03:06:58;;;;;;;0.10;0.10;;;;;;;;;;6251925;23;20357;-83
2023/04/10 03:09:40;;;;;;;0.20;0.20;;;;;;;;;;6243802;23;20020;-83
2023/04/10 03:12:06;;;;;;;0.20;0.20;;;;;;;;;;6238313;23;20516;-83
2023/04/10 03:14:35;;;;;;;0.22;0.22;;;;;;;;;;6215745;23;20504;-83
2023/04/10 03:17:20;;;;;;;0.25;0.25;;;;;;;;;;6214940;23;20015;-83
2023/04/10 03:19:56;;;;;;;0.20;0.20;;;;;;;;;;6214716;23;20362;-83
2023/04/10 03:25:38;;;;;;;0.20;0.20;;;;;;;;;;6241363;23;20553;-83
2023/04/10 03:28:10;;;;;;;0.10;0.10;;;;;;;;;;6215971;23;20020;-83
2023/04/10 03:30:55;;;;;;;0.20;0.20;;;;;;;;;;6215101;23;20016;-83
2023/04/10 03:33:46;;;;;;;0.20;0.20;;;;;;;;;;6214613;23;20016;-85
2023/04/10 03:39:23;;;;;;;0.20;0.20;;;;;;;;;;6248209;23;20019;-84
2023/04/10 03:42:49;;;;;;;0.10;0.10;;;;;;;;;;6206141;22;20392;-83
2023/04/10 03:58:00;;;;;;;0.15;0.15;;;;;;;;;;6213382;23;20065;-82
2023/04/10 04:00:42;;;;;;;0.20;0.20;;;;;;;;;;6212129;23;20029;-82
2023/04/10 04:03:34;;;;;;;0.20;0.20;;;;;;;;;;6212498;23;20021;-83
2023/04/10 04:06:09;;;;;;;0.30;0.30;;;;;;;;;;6211343;23;20075;-81
2023/04/10 04:08:47;;;;;;;0.20;0.20;;;;;;;;;;6214503;23;20028;-83
2023/04/10 04:11:32;;;;;;;0.10;0.10;;;;;;;;;;6212293;23;20017;-82
2023/04/10 04:14:05;;;;;;;0.20;0.20;;;;;;;;;;6216433;23;20095;-82
2023/04/10 04:32:03;;;;;;;0.20;0.20;;;;;;;;;;6240676;22;20424;-81
2023/04/10 04:37:54;;;;;;;0.20;0.20;;;;;;;;;;6244686;23;20348;-82
2023/04/10 04:43:48;;;;;;;0.20;0.20;;;;;;;;;;6217867;23;20016;-83
2023/04/10 04:46:14;;;;;;;0.20;0.20;;;;;;;;;;6216831;23;20020;-84
2023/04/10 04:48:43;;;;;;;0.20;0.20;;;;;;;;;;6216376;23;20027;-83
2023/04/10 04:51:35;;;;;;;0.20;0.20;;;;;;;;;;6216854;23;20027;-81
2023/04/10 04:54:38;;;;;;;0.20;0.20;;;;;;;;;;6244396;23;20016;-83
2023/04/10 04:57:36;;;;;;;0.20;0.20;;;;;;;;;;6215304;23;20020;-81
2023/04/10 05:00:17;;;;;;;0.20;0.20;;;;;;;;;;6216250;23;20020;-83
2023/04/10 05:12:29;;;;;;;0.20;0.20;;;6.60;95.50;;;;;;6244231;23;20019;-82
2023/04/10 05:21:11;;;;;;;0.20;0.20;;;6.60;95.70;;;;;;6241984;23;20090;-73
2023/04/10 05:24:00;;;;;;;0.20;0.20;;;6.90;95.90;;;;;;6212519;22;20028;-77
2023/04/10 05:43:18;;;;;;;0.20;0.20;;;7.20;96.30;;;;;;6301080;22;20090;-82
2023/04/10 05:59:57;;;;;;;0.20;0.20;;;7.50;96.50;;;;;;6217104;23;20021;-81
2023/04/10 06:03:07;;;;;;;0.20;0.20;;;6.90;96.40;;;;;;6194713;23;20028;-82
2023/04/10 06:32:55;;;;;;;0.10;0.10;;;8.10;96.40;;;;;;6244248;22;20364;-79
2023/04/10 06:35:21;;;;;;;0.10;0.10;;;8.20;96.40;;;;;;6240512;23;20085;-79
2023/04/10 06:37:53;;;;;;;0.10;0.10;;;8.20;96.30;;;;;;6242091;23;20484;-80
2023/04/10 06:41:03;;;;;;;0.20;0.20;;;8.40;96.30;;;;;;6169743;23;20059;-77
2023/04/10 06:43:50;;;;;;;0.20;0.20;;;7.40;96.00;;;;;;6241367;23;20464;-79
2023/04/10 06:46:16;;;;;;;0.20;0.20;;;8.40;96.20;;;;;;6214529;23;20020;-78
2023/04/10 07:19:52;;;;;;;0.20;0.20;;;9.20;95.90;;;;;;6240501;22;20031;-80
2023/04/10 08:04:56;;;;;;;0.20;0.20;;;10.50;95.20;;;;;;6242927;23;20354;-81
2023/04/10 08:19:00;;;;;;;0.20;0.20;;;11.00;94.10;;;;;;6236947;22;20119;-85
2023/04/10 08:45:36;;;;;;;0.10;0.10;;;12.00;93.60;;;;;;6178352;23;20032;-84
2023/04/10 09:23:29;;;;;;;0.10;0.10;;;13.40;90.20;;;;;;6214534;22;20074;31
2023/04/10 10:41:49;;;;;;;0.20;0.20;;;15.80;81.00;;;;;;6224588;22;20105;-84
2023/04/10 10:51:02;;;;;;;0.20;0.20;;;15.70;80.30;;;;;;6238037;22;20024;-80
2023/04/10 10:53:59;;;;;;;0.13;0.13;;;15.70;78.80;;;;;;6215067;23;20445;-81
2023/04/10 10:56:32;;;;;;;0.20;0.20;;;15.60;78.90;;;;;;6241194;23;20097;-82
2023/04/10 10:58:57;;;;;;;2.95;0.20;;;15.60;80.50;;;;;;6218926;23;20035;-82
2023/04/10 11:01:26;;;;;;;0.10;0.10;;;15.50;79.80;;;;;;6255234;23;20008;-83
2023/04/10 11:03:52;;;;;;;0.20;0.20;;;15.60;81.10;;;;;;6235263;23;20027;-82
2023/04/10 11:06:38;;;;;;;0.20;0.20;;;15.70;79.40;;;;;;6243525;23;19996;-82
2023/04/10 11:09:04;;;;;;;0.15;0.15;;;15.70;79.50;;;;;;6245938;23;20217;-82
2023/04/10 11:11:57;;;;;;;0.20;0.20;;;15.70;79.70;;;;;;6242279;23;20013;-82
2023/04/10 11:14:23;;;;;;;0.20;0.20;;;15.70;80.40;;;;;;6243164;23;20013;-83
2023/04/10 11:16:49;;;;;;;0.10;0.10;;;15.80;79.10;;;;;;6241883;23;20058;-83
2023/04/10 11:19:16;;;;;;;0.10;0.10;;;15.80;78.40;;;;;;6242554;23;20011;-84
2023/04/10 11:22:03;;;;;;;0.20;0.20;;;15.80;78.90;;;;;;6215959;23;20020;-83
2023/04/10 11:24:52;;;;;;;0.10;0.10;;;15.90;78.70;;;;;;6216995;23;20467;-82
2023/04/10 11:27:43;;;;;;;0.20;0.20;;;15.90;78.00;;;;;;6214948;23;20468;-83
2023/04/10 11:30:26;;;;;;;0.10;0.10;;;15.90;78.80;;;;;;6242649;23;20012;-82
2023/04/10 11:33:03;;;;;;;0.10;0.10;;;15.90;78.00;;;;;;6243091;23;20453;-82
2023/04/10 11:35:30;;;;;;;0.20;0.20;;;16.00;77.00;;;;;;6243035;23;20020;-83
2023/04/10 11:38:13;;;;;;;0.10;0.10;;;16.00;78.10;;;;;;6216144;23;20429;-83
2023/04/10 11:40:56;;;;;;;0.10;0.10;;;16.00;77.60;;;;;;6242896;23;20020;-83
2023/04/10 11:43:21;;;;;;;0.10;0.10;;;15.90;77.20;;;;;;6215923;23;20034;-83
2023/04/10 11:45:50;;;;;;;0.20;0.20;;;15.90;76.40;;;;;;6254412;23;20036;-82
2023/04/10 11:48:16;;;;;;;0.10;0.10;;;15.90;77.30;;;;;;6221159;23;20047;-83
2023/04/10 11:50:42;;;;;;;0.10;0.10;;;15.90;76.80;;;;;;6215597;23;20322;-83
2023/04/10 11:53:18;;;;;;;0.15;0.15;;;15.90;76.80;;;;;;6216309;23;20143;-83
2023/04/10 11:55:45;;;;;;;0.17;0.17;;;15.90;78.20;;;;;;6242600;23;20016;-82
2023/04/10 11:58:29;;;;;;;0.15;0.15;;;15.90;77.60;;;;;;6215874;23;20024;-82
2023/04/10 12:01:02;;;;;;;0.20;0.20;;;16.00;78.80;;;;;;6243421;23;20031;-83
2023/04/10 12:03:42;;;;;;;0.10;0.10;;;16.00;77.60;;;;;;6216897;23;20016;-83
2023/04/10 12:06:12;;;;;;;0.10;0.10;;;16.10;76.60;;;;;;6243094;23;20249;-84
2023/04/10 12:08:48;;;;;;;0.20;0.20;;;16.20;77.20;;;;;;6244607;23;20020;-83
2023/04/10 12:11:20;;;;;;;0.20;0.20;;;16.20;76.50;;;;;;6214968;23;20063;-84
2023/04/10 12:13:53;;;;;;;0.20;0.20;;;16.30;77.60;;;;;;6244997;23;20012;-83
2023/04/10 12:16:20;;;;;;;0.10;0.10;;;16.50;76.70;;;;;;6216866;23;20024;-82
2023/04/10 12:18:46;;;;;;;0.10;0.10;;;16.60;75.30;;;;;;6243755;23;20079;-82
2023/04/10 12:21:12;;;;;;;0.10;0.10;;;16.60;75.80;;;;;;6243827;23;20329;-83
2023/04/10 12:23:38;;;;;;;0.20;0.20;;;16.60;74.90;;;;;;6217721;23;20050;-81
2023/04/10 12:26:14;;;;;;;0.17;0.17;;;16.70;74.60;;;;;;6227666;23;20012;-82
2023/04/10 12:28:42;;;;;;;0.20;0.20;;;16.90;75.70;;;;;;6218489;23;20506;-83
2023/04/10 12:31:08;;;;;;;0.20;0.20;;;17.00;76.60;;;;;;6244298;23;20282;-82
2023/04/10 12:33:34;;;;;;;0.20;0.20;;;17.30;78.60;;;;;;6218465;23;20047;-82
2023/04/10 12:36:03;;;;;;;0.20;0.20;;;17.70;77.10;;;;;;6221862;23;20024;-82
2023/04/10 12:38:55;;;;;;;0.20;0.20;;;17.90;74.00;;;;;;6247111;23;20391;-83
2023/04/10 12:41:23;;;;;;;0.20;0.20;;;18.00;74.20;;;;;;6215310;23;20456;-82
2023/04/10 12:43:51;;;;;;;0.10;0.10;;;18.00;73.20;;;;;;6220142;23;20047;-84
2023/04/10 12:46:25;;;;;;;0.20;0.20;;;17.90;73.30;;;;;;6265635;22;20008;-81
2023/04/10 12:48:58;;;;;;;0.20;0.20;;;17.80;72.00;;;;;;6230043;23;20020;-79
2023/04/10 12:51:47;;;;;;;0.20;0.20;;;17.60;73.90;;;;;;6216579;23;20016;-81
2023/04/10 12:54:33;;;;;;;0.20;0.20;;;17.50;71.70;;;;;;6214653;23;20047;-82
2023/04/10 12:57:05;;;;;;;0.28;0.28;;;17.40;72.70;;;;;;6241732;23;20079;-81
2023/04/10 12:59:31;;;;;;;0.10;0.10;;;17.20;72.50;;;;;;6241125;23;20079;-82
2023/04/10 13:01:57;;;;;;;0.20;0.20;;;17.10;73.60;;;;;;6217538;23;20016;-81
2023/04/10 13:04:23;;;;;;;0.20;0.20;;;17.00;73.40;;;;;;6215579;23;20099;-82
2023/04/10 13:06:52;;;;;;;0.20;0.20;;;16.90;72.50;;;;;;6254302;23;20437;-80
2023/04/10 13:09:23;;;;;;;0.10;0.10;;;16.80;72.60;;;;;;6215200;23;20016;-79
2023/04/10 13:11:50;;;;;;;0.20;0.20;;;16.70;73.20;;;;;;6214647;23;20048;-80
2023/04/10 13:14:16;;;;;;;0.13;0.13;;;16.70;73.80;;;;;;6242325;23;20052;-81
2023/04/10 13:16:42;;;;;;;0.20;0.20;;;16.60;74.40;;;;;;6213556;23;20036;-81
2023/04/10 13:19:07;;;;;;;0.20;0.20;;;16.60;73.80;;;;;;6215692;23;20016;-79
2023/04/10 13:21:36;;;;;;;0.20;0.20;;;16.60;73.70;;;;;;6214184;23;20024;-80
2023/04/10 13:24:01;;;;;;;0.20;0.20;;;16.50;73.80;;;;;;6214657;23;20024;-81
2023/04/10 13:26:27;;;;;;;0.20;0.20;;;16.50;74.10;;;;;;6239763;23;20023;-83
2023/04/10 13:28:59;;;;;;;0.20;0.20;;;16.50;74.40;;;;;;6240665;23;20071;-80
2023/04/10 13:31:25;;;;;;;0.20;0.20;;;16.40;75.20;;;;;;6215120;23;20052;-80
2023/04/10 13:33:50;;;;;;;0.20;0.20;;;16.40;74.90;;;;;;6242036;23;20078;-79
2023/04/10 13:36:16;;;;;;;0.20;0.20;;;16.40;75.20;;;;;;6214478;23;20020;-79
2023/04/10 13:38:42;;;;;;;0.10;0.10;;;16.40;75.20;;;;;;6216058;23;20016;-79
2023/04/10 13:41:13;;;;;;;0.20;0.20;;;16.40;75.50;;;;;;6244084;23;20019;-80
2023/04/10 13:43:39;;;;;;;0.20;0.20;;;16.40;76.10;;;;;;6215937;23;20028;-80
2023/04/10 13:46:05;;;;;;;0.20;0.20;;;16.40;76.40;;;;;;6227102;23;20024;-79
2023/04/10 13:48:42;;;;;;;0.20;0.20;;;16.40;75.20;;;;;;6243174;23;20020;-80
2023/04/10 13:51:08;;;;;;;0.20;0.20;;;16.40;75.50;;;;;;6195510;23;1098391;-78
2023/04/10 13:53:34;;;;;;;0.10;0.10;;;16.40;75.40;;;;;;6244797;23;20043;-80
2023/04/10 13:56:04;;;;;;;0.20;0.20;;;16.30;76.20;;;;;;6243377;23;20339;-80
2023/04/10 13:58:32;;;;;;;0.20;0.20;;;16.30;75.90;;;;;;6244359;23;20020;-80
2023/04/10 14:00:59;;;;;;;0.20;0.20;;;16.30;75.60;;;;;;6243845;23;20024;-79
2023/04/10 14:03:28;;;;;;;0.20;0.20;;;16.20;76.50;;;;;;6245355;23;20020;-80
2023/04/10 14:05:56;;;;;;;0.20;0.20;;;16.20;76.20;;;;;;6216155;23;20012;-80
2023/04/10 14:08:22;;;;;;;0.20;0.20;;;16.20;76.80;;;;;;6217794;23;20023;-80
2023/04/10 14:10:51;;;;;;;0.20;0.20;;;16.10;77.20;;;;;;6215066;23;20399;-80
2023/04/10 14:13:18;;;;;;;0.20;0.20;;;16.10;77.30;;;;;;6216495;23;20016;-79
2023/04/10 14:15:44;;;;;;;0.10;0.10;;;16.10;77.80;;;;;;6217055;23;20120;-79
2023/04/10 14:18:10;;;;;;;0.15;0.15;;;16.10;77.40;;;;;;6243799;23;20075;-79
2023/04/10 14:20:35;;;;;;;0.10;0.10;;;16.10;76.10;;;;;;6245378;23;20042;-79
2023/04/10 14:23:01;;;;;;;0.20;0.20;;;16.00;76.40;;;;;;6220304;23;20103;-79
2023/04/10 14:25:27;;;;;;;0.10;0.10;;;16.00;76.50;;;;;;6225296;23;20008;-78
2023/04/10 14:27:52;;;;;;;0.20;0.20;;;15.90;76.20;;;;;;6235604;23;20051;-78
2023/04/10 14:30:18;;;;;;;0.20;0.20;;;15.90;76.00;;;;;;6248692;23;20448;-79
2023/04/10 14:32:44;;;;;;;0.20;0.20;;;15.80;76.00;;;;;;6217076;23;20012;-79
2023/04/10 14:35:10;;;;;;;0.20;0.20;;;15.80;76.40;;;;;;6216509;23;20020;-79
2023/04/10 14:37:36;;;;;;;0.20;0.20;;;15.70;76.90;;;;;;6243732;23;20039;-80
2023/04/10 14:40:05;;;;;;;0.10;0.10;;;15.70;77.20;;;;;;6241299;23;20016;-80
2023/04/10 14:42:31;;;;;;;0.20;0.20;;;15.70;77.00;;;;;;6215478;23;20020;-78
2023/04/10 14:44:57;;;;;;;0.20;0.20;;;15.70;76.30;;;;;;6216667;23;20023;-79
2023/04/10 14:47:23;;;;;;;0.15;0.15;;;15.60;77.00;;;;;;6242277;23;20016;-79
2023/04/10 14:49:49;;;;;;;0.20;0.20;;;15.60;76.50;;;;;;6215737;23;20027;-80
2023/04/10 14:52:20;;;;;;;0.20;0.20;;;15.60;76.40;;;;;;6215373;23;20027;-79
2023/04/10 14:54:46;;;;;;;0.20;0.20;;;15.50;76.80;;;;;;6216123;23;20020;-80
2023/04/10 14:57:13;;;;;;;0.20;0.20;;;15.50;76.80;;;;;;6214785;23;20013;-79
2023/04/10 14:59:39;;;;;;;0.20;0.20;;;15.50;76.90;;;;;;6243742;23;20020;-80
2023/04/10 15:02:05;;;;;;;0.20;0.20;;;15.40;77.20;;;;;;6215475;23;20189;-79
2023/04/10 15:04:31;;;;;;;0.10;0.10;;;15.40;77.30;;;;;;6248306;23;20024;-79
2023/04/10 15:06:57;;;;;;;0.20;0.20;;;15.40;77.30;;;;;;6221762;23;20397;-79
2023/04/10 15:09:22;;;;;;;0.10;0.10;;;15.30;77.50;;;;;;6216043;23;20031;-81
2023/04/10 15:11:48;;;;;;;0.20;0.20;;;15.30;77.50;;;;;;6214767;23;20012;-80
2023/04/10 15:14:14;;;;;;;0.10;0.10;;;15.30;78.00;;;;;;6214715;23;20020;-82
2023/04/10 15:16:40;;;;;;;0.20;0.20;;;15.30;78.40;;;;;;6243236;23;20325;-75
2023/04/10 15:19:06;;;;;;;0.15;0.15;;;15.30;79.00;;;;;;6215493;23;20016;-76
2023/04/10 15:21:32;;;;;;;0.13;0.13;;;15.10;80.80;;;;;;6213834;23;20027;-75
2023/04/10 15:23:57;;;;;;;0.20;0.20;;;15.10;81.00;;;;;;6241465;23;20103;-75
2023/04/10 15:26:23;;;;;;;0.20;0.20;;;15.00;82.00;;;;;;6240527;23;20441;-75
2023/04/10 15:28:52;;;;;;;0.20;0.20;;;14.80;82.70;;;;;;6214286;23;20020;-75
2023/04/10 15:31:21;;;;;;;;;;;14.70;82.90;;;;;;6240957;23;20022;-75
2023/04/10 15:33:46;;;;;;;0.10;0.10;;;14.60;83.30;;;;;;6215738;23;19919;-75
2023/04/10 15:36:12;;;;;;;0.20;0.20;;;14.50;83.80;;;;;;6212697;23;20071;-75
2023/04/10 15:38:37;;;;;;;0.15;0.15;;;14.40;83.60;;;;;;6215261;23;20020;-75
2023/04/10 15:41:13;;;;;;;0.10;0.10;;;14.30;84.60;;;;;;6239801;23;20024;-76
2023/04/10 15:43:41;;;;;;;0.10;0.10;;;14.20;84.80;;;;;;6213111;23;20012;-76
2023/04/10 15:46:06;;;;;;;0.20;0.20;;;14.10;85.50;;;;;;6216386;23;20526;-75
2023/04/10 15:48:32;;;;;;;0.20;0.20;;;13.90;86.00;;;;;;6214472;23;20019;-76
2023/04/10 15:51:02;;;;;;;0.20;0.20;;;13.80;86.70;;;;;;6240946;23;20016;-76
2023/04/10 15:53:27;;;;;;;0.20;0.20;;;13.80;87.30;;;;;;6214360;23;20020;-76
2023/04/10 15:55:59;;;;;;;0.20;0.20;;;13.70;87.60;;;;;;6212567;23;20016;-75
2023/04/10 15:58:24;;;;;;;0.10;0.10;;;13.60;87.80;;;;;;6215149;23;20336;-75
2023/04/10 16:00:50;;;;;;;0.10;0.10;;;13.60;88.50;;;;;;6216736;23;20062;-75
2023/04/10 16:03:16;;;;;;;0.20;0.20;;;13.50;88.80;;;;;;6213093;23;20020;-74
2023/04/10 16:05:41;;;;;;;0.20;0.20;;;13.50;89.40;;;;;;6214649;23;20019;-74
2023/04/10 16:08:07;;;;;;;0.10;0.10;;;13.40;89.80;;;;;;6217422;23;20551;-75
2023/04/10 16:10:33;;;;;;;0.20;0.20;;;13.30;90.30;;;;;;6252044;23;20031;-74
2023/04/10 16:13:03;;;;;;;0.20;0.20;;;13.30;90.50;;;;;;6215306;23;20051;-75
2023/04/10 16:15:30;;;;;;;0.13;0.13;;;13.10;90.60;;;;;;6243397;23;20054;-74
2023/04/10 16:17:59;;;;;;;0.20;0.20;;;13.10;90.90;;;;;;6216311;23;20448;-75
2023/04/10 16:20:25;;;;;;;0.20;0.20;;;13.10;91.10;;;;;;6216647;23;20020;-75
2023/04/10 16:22:52;;;;;;;0.17;0.17;;;13.00;91.30;;;;;;6216121;23;20016;-75
2023/04/10 16:25:18;;;;;;;0.20;0.20;;;13.00;91.50;;;;;;6216560;23;20087;-74
2023/04/10 16:27:43;;;;;;;0.20;0.20;;;12.90;91.80;;;;;;6216411;23;20514;-74
2023/04/10 16:30:10;;;;;;;0.20;0.20;;;12.90;92.10;;;;;;6243319;23;20336;-75
2023/04/10 16:32:36;;;;;;;0.20;0.20;;;12.90;92.20;;;;;;6214219;23;20023;-74
2023/04/10 16:35:02;;;;;;;0.20;0.20;;;12.80;92.50;;;;;;6216022;23;20008;-74
2023/04/10 16:37:28;;;;;;;0.20;0.20;;;12.80;92.80;;;;;;6215533;23;20420;-75
2023/04/10 16:39:54;;;;;;;0.20;0.20;;;12.80;93.20;;;;;;6215169;23;20031;-74
2023/04/10 16:42:20;;;;;;;0.20;0.20;;;12.70;93.30;;;;;;6214524;23;20492;-75
2023/04/10 16:44:46;;;;;;;0.20;0.20;;;12.70;93.80;;;;;;6244103;23;20016;-74
2023/04/10 16:47:14;;;;;;;0.20;0.20;;;12.60;94.10;;;;;;6214778;23;20055;-74
2023/04/10 16:49:44;;;;;;;0.10;0.10;;;12.60;94.30;;;;;;6215720;23;20020;-75
2023/04/10 16:52:12;;;;;;;0.20;0.20;;;12.50;94.50;;;;;;6214667;23;20024;-76
2023/04/10 16:54:39;;;;;;;0.15;0.15;;;12.50;95.60;;;;;;6215249;23;20031;-76
2023/04/10 16:57:04;;;;;;;0.20;0.20;;;12.40;95.40;;;;;;6214951;23;20099;-77
2023/04/10 16:59:31;;;;;;;0.20;0.20;;;12.40;96.00;;;;;;6217125;23;20071;-76
2023/04/10 17:01:57;;;;;;;0.20;0.20;;;12.20;96.30;;;;;;6243841;23;20016;-76
2023/04/10 17:04:22;;;;;;;0.20;0.20;;;12.20;97.10;;;;;;6241756;23;20018;-74
2023/04/10 17:06:48;;;;;;;0.10;0.10;;;12.10;97.50;;;;;;6244746;23;20393;-76
2023/04/10 19:35:28;;;;;;;0.20;0.20;;;10.80;99.90;;;;;;6253762;22;20024;-82
2023/04/10 20:06:00;;;;;;;0.20;0.20;;;10.80;99.90;;;;;;6240602;22;20352;-78
2023/04/10 20:48:38;;;;;;;0.20;0.20;;;10.80;99.90;;;;;;6270454;22;20074;-77
2023/04/10 20:51:04;;;;;;;0.20;0.20;;;10.90;99.90;;;;;;6242227;22;20022;-78
2023/04/10 20:53:30;;;;;;;0.15;0.15;;;10.90;99.90;;;;;;6272182;22;20016;-79
2023/04/10 20:55:56;;;;;;;0.10;0.10;;;10.90;99.90;;;;;;6245687;22;20023;-78
2023/04/10 20:58:22;;;;;;;0.10;0.10;;;11.40;99.90;;;;;;6275488;22;20145;-77
2023/04/10 21:00:52;;;;;;;0.10;0.10;;;11.30;99.90;;;;;;6273733;22;20433;-78
2023/04/10 21:03:18;;;;;;;0.20;0.20;;;10.90;99.90;;;;;;6274915;22;20019;-78
2023/04/10 21:05:44;;;;;;;0.20;0.20;;;10.90;99.90;;;;;;6282272;22;20015;-77
2023/04/10 21:08:11;;;;;;;0.20;0.20;;;10.90;99.90;;;;;;6273938;22;20073;-76
2023/04/10 21:10:42;;;;;;;0.13;0.13;;;10.90;99.90;;;;;;6247563;22;20034;-75
2023/04/10 21:13:13;;;;;;;0.20;0.20;;;11.10;99.90;;;;;;6275959;22;20392;-76
2023/04/10 21:15:39;;;;;;;0.20;0.20;;;11.20;99.90;;;;;;6278352;22;20019;-76
2023/04/10 21:18:05;;;;;;;0.20;0.20;;;11.00;99.90;;;;;;6256400;22;20051;-78
2023/04/10 21:20:34;;;;;;;0.20;0.20;;;11.00;99.90;;;;;;6273134;22;20038;-78
2023/04/10 21:23:00;;;;;;;0.20;0.20;;;10.70;99.90;;;;;;6274132;22;20077;-78
2023/04/10 21:25:26;;;;;;;0.20;0.20;;;11.00;99.90;;;;;;6272844;22;20015;-77
2023/04/10 21:27:55;;;;;;;0.10;0.10;;;11.30;99.90;;;;;;6243910;22;20023;-76
2023/04/10 21:30:20;;;;;;;0.20;0.20;;;11.00;99.90;;;;;;6272941;22;20118;-77
2023/04/10 21:32:46;;;;;;;0.17;0.17;;;11.00;99.90;;;;;;6273837;22;20420;-76
2023/04/10 21:35:12;;;;;;;0.20;0.20;;;11.00;99.90;;;;;;6245673;22;20397;-76
2023/04/10 21:37:40;;;;;;;0.15;0.15;;;11.00;99.90;;;;;;6246803;22;20099;-76
2023/04/10 21:40:09;;;;;;;0.20;0.20;;;11.00;99.90;;;;;;6273937;22;20083;-77
2023/04/10 21:42:44;;;;;;;0.20;0.20;;;11.00;99.90;;;;;;6244063;22;20054;-76
2023/04/10 21:45:14;;;;;;;0.20;0.20;;;11.00;99.90;;;;;;6258270;22;20031;-75
2023/04/10 21:47:45;;;;;;;0.20;0.20;;;11.00;99.90;;;;;;6248104;22;20039;-76
2023/04/10 21:50:13;;;;;;;0.20;0.20;;;11.10;99.90;;;;;;6273259;22;20016;-76
2023/04/10 21:53:05;;;;;;;0.20;0.20;;;11.00;99.90;;;;;;6246599;22;20762;-76
2023/04/10 21:55:31;;;;;;;0.17;0.17;;;11.30;99.90;;;;;;6270819;22;20522;-76
2023/04/10 21:57:57;;;;;;;0.10;0.10;;;10.90;99.90;;;;;;6246828;22;20020;-76
2023/04/10 22:00:23;;;;;;;0.10;0.10;;;10.90;99.90;;;;;;6246088;22;20019;-75
2023/04/10 22:02:51;;;;;;;0.10;0.10;;;10.90;99.90;;;;;;6273355;22;20069;-75
2023/04/10 22:05:23;;;;;;;0.13;0.13;;;11.40;99.90;;;;;;6273115;22;20020;-75
2023/04/10 22:07:49;;;;;;;;;;;10.50;99.90;;;;;;6247064;22;20046;-75
2023/04/10 22:10:15;;;;;;;0.20;0.20;;;10.90;99.90;;;;;;6272338;22;19921;-75
2023/04/10 22:12:40;;;;;;;0.20;0.20;;;10.80;99.90;;;;;;6246119;22;20050;-75
2023/04/10 22:15:06;;;;;;;0.20;0.20;;;10.80;99.90;;;;;;6273978;22;20022;-75
2023/04/10 22:17:32;;;;;;;0.20;0.20;;;10.70;99.90;;;;;;6273053;22;20038;-76
2023/04/10 22:19:58;;;;;;;0.10;0.10;;;10.70;99.90;;;;;;6273994;22;20340;-75
2023/04/10 22:22:24;;;;;;;0.13;0.13;;;10.60;99.90;;;;;;6273461;22;20020;-75
2023/04/10 22:24:52;;;;;;;0.20;0.20;;;10.60;99.90;;;;;;6250364;22;20019;-75
2023/04/10 22:27:18;;;;;;;0.20;0.20;;;10.60;99.90;;;;;;6251808;22;20011;-75
2023/04/10 22:29:44;;;;;;;0.20;0.20;;;10.60;99.90;;;;;;6274882;22;20102;-75
2023/04/10 22:32:09;;;;;;;0.10;0.10;;;10.50;99.90;;;;;;6245247;22;20367;-75
2023/04/10 22:34:35;;;;;;;0.10;0.10;;;10.60;99.90;;;;;;6273482;22;20099;-75
2023/04/10 22:37:01;;;;;;;0.17;0.17;;;10.50;99.90;;;;;;6246604;22;20051;-75
2023/04/10 22:39:27;;;;;;;0.10;0.10;;;10.50;99.90;;;;;;6271398;22;20016;-75
2023/04/10 22:41:52;;;;;;;0.20;0.20;;;10.60;99.90;;;;;;6245905;22;20015;-75
2023/04/10 22:44:18;;;;;;;0.20;0.20;;;10.60;99.90;;;;;;6245078;22;20095;-75
2023/04/10 22:46:46;;;;;;;0.20;0.20;;;10.60;99.90;;;;;;6273750;22;20098;-75
2023/04/10 22:49:15;;;;;;;0.17;0.17;;;10.50;99.90;;;;;;6272399;22;20460;-75
2023/04/10 22:51:44;;;;;;;0.20;0.20;;;10.50;99.90;;;;;;6271918;22;20022;-75
2023/04/10 22:54:16;;;;;;;;;;;10.50;99.90;;;;;;6273191;22;20016;-75
2023/04/10 22:56:42;;;;;;;0.20;0.20;;;10.60;99.90;;;;;;6245094;22;19968;-75
2023/04/10 22:59:08;;;;;;;0.10;0.10;;;10.50;99.90;;;;;;6249714;22;20026;-74
2023/04/10 23:01:34;;;;;;;0.15;0.15;;;10.50;99.90;;;;;;6252331;22;20019;-75
2023/04/10 23:03:59;;;;;;;0.10;0.10;;;10.50;99.90;;;;;;6249853;22;20015;-76
2023/04/10 23:06:31;;;;;;;0.10;0.10;;;10.60;99.90;;;;;;6276825;22;20019;-75
2023/04/10 23:08:57;;;;;;;0.20;0.20;;;10.60;99.90;;;;;;6273839;22;20344;-75
2023/04/10 23:11:26;;;;;;;0.15;0.15;;;10.60;99.90;;;;;;6271345;22;20081;-76
2023/04/10 23:13:51;;;;;;;0.10;0.10;;;10.50;99.90;;;;;;6271551;22;20011;-75
2023/04/10 23:16:17;;;;;;;0.10;0.10;;;10.60;99.90;;;;;;6272849;22;20085;-75
2023/04/10 23:18:45;;;;;;;0.10;0.10;;;10.50;99.90;;;;;;6246069;22;20012;-76
2023/04/10 23:21:11;;;;;;;0.20;0.20;;;10.50;99.90;;;;;;6272556;22;20027;-74
2023/04/10 23:23:36;;;;;;;0.10;0.10;;;10.60;99.90;;;;;;6273778;22;20008;-75
2023/04/10 23:26:02;;;;;;;0.10;0.10;;;10.60;99.90;;;;;;6243874;22;20142;-75
2023/04/10 23:28:28;;;;;;;0.10;0.10;;;10.60;99.90;;;;;;6272162;22;20019;-75
2023/04/10 23:30:53;;;;;;;0.13;0.13;;;10.60;99.90;;;;;;6245496;22;20018;-76
2023/04/10 23:33:19;;;;;;;0.10;0.10;;;10.60;99.90;;;;;;6246216;22;20011;-76
2023/04/10 23:35:45;;;;;;;0.10;0.10;;;10.60;99.90;;;;;;6244150;22;20023;-76
2023/04/10 23:38:10;;;;;;;0.10;0.10;;;10.50;99.90;;;;;;6245694;22;20015;-76
2023/04/10 23:40:36;;;;;;;0.20;0.20;;;10.40;99.90;;;;;;6270564;22;20022;-76
2023/04/10 23:43:02;;;;;;;0.20;0.20;;;10.30;99.90;;;;;;6272695;22;20062;-76
2023/04/10 23:45:27;;;;;;;0.10;0.10;;;10.30;99.90;;;;;;6251423;22;20028;-77
2023/04/10 23:47:53;;;;;;;0.20;0.20;;;10.20;99.90;;;;;;6273869;22;20022;-77
2023/04/10 23:50:18;;;;;;;0.20;0.20;;;10.20;99.90;;;;;;6245022;22;20015;-77
2023/04/10 23:52:50;;;;;;;0.10;0.10;;;10.00;99.90;;;;;;6273524;22;20425;-77
2023/04/10 23:55:17;;;;;;;0.15;0.15;;;9.90;99.90;;;;;;6271063;22;20011;-77
2023/04/10 23:57:43;;;;;;;0.20;0.20;;;9.90;99.90;;;;;;6273590;22;20377;-77
